createdAt,value
2023-04-03T00:00:16.658Z,98965.13
2023-04-03T00:05:37.586Z,98994.09
2023-04-03T00:08:10.997Z,98973.53
2023-04-03T00:10:53.424Z,99000.38
2023-04-03T00:13:26.281Z,98980.09
2023-04-03T00:16:05.772Z,98974.88
2023-04-03T00:18:37.401Z,98992.69
2023-04-03T00:26:46.268Z,98969.13
2023-04-03T00:29:32.416Z,98991.66
2023-04-03T01:00:36.712Z,98961.25
2023-04-03T01:11:01.002Z,98981.53
2023-04-03T01:51:57.288Z,98982.44
2023-04-03T01:54:32.446Z,98998.56
2023-04-03T02:02:41.402Z,98975.94
2023-04-03T02:19:17.086Z,98970.03
2023-04-03T02:45:05.778Z,98981.03
2023-04-03T02:53:08.528Z,98993.25
2023-04-03T03:04:44.936Z,98995.56
2023-04-03T03:13:17.422Z,98993.94
2023-04-03T04:58:51.185Z,99043.47
2023-04-03T05:29:12.823Z,99030.63
2023-04-03T06:03:27.338Z,99069.13
2023-04-03T06:05:54.621Z,99073.63
2023-04-03T06:08:21.892Z,99046.47
2023-04-03T06:10:49.062Z,99078.78
2023-04-03T06:13:16.249Z,99067.13
2023-04-03T06:15:43.326Z,99068.16
2023-04-03T06:18:10.900Z,99083.56
2023-04-03T06:20:38.478Z,99060.22
2023-04-03T06:23:07.438Z,99071.69
2023-04-03T06:25:35.992Z,99068.44
2023-04-03T06:28:03.088Z,99058.72
2023-04-03T06:30:30.280Z,99073.22
2023-04-03T06:32:57.736Z,99052.50
2023-04-03T06:35:25.138Z,99070.22
2023-04-03T06:38:11.107Z,99068.38
2023-04-03T06:40:38.333Z,99074.47
2023-04-03T06:43:06.337Z,99085.59
2023-04-03T06:45:52.230Z,99079.72
2023-04-03T06:48:19.607Z,99078.06
2023-04-03T06:50:46.737Z,99070.88
2023-04-03T06:53:13.750Z,99079.66
2023-04-03T06:55:41.318Z,99075.50
2023-04-03T06:58:16.556Z,99072.38
2023-04-03T07:00:43.684Z,99079.66
2023-04-03T07:03:10.847Z,99084.16
2023-04-03T07:05:38.341Z,99078.34
2023-04-03T07:08:07.863Z,99062.19
2023-04-03T07:10:34.970Z,99062.28
2023-04-03T07:13:02.864Z,99057.34
2023-04-03T07:15:29.828Z,99068.56
2023-04-03T07:17:57.033Z,99060.75
2023-04-03T07:20:26.523Z,99067.19
2023-04-03T07:22:53.583Z,99065.41
2023-04-03T07:25:21.094Z,99078.34
2023-04-03T07:27:48.705Z,99061.28
2023-04-03T07:30:15.862Z,99088.72
2023-04-03T07:32:43.166Z,99079.13
2023-04-03T07:35:10.669Z,99079.41
2023-04-03T07:37:37.608Z,99086.25
2023-04-03T07:40:05.576Z,99087.03
2023-04-03T07:42:32.739Z,99076.44
2023-04-03T07:44:59.784Z,99071.13
2023-04-03T07:47:27.372Z,99093.34
2023-04-03T07:49:54.435Z,99084.06
2023-04-03T07:52:21.447Z,99089.31
2023-04-03T07:54:48.965Z,99088.09
2023-04-03T07:57:19.256Z,99070.88
2023-04-03T07:59:46.380Z,99072.28
2023-04-03T08:02:14.003Z,99076.22
2023-04-03T08:04:41.177Z,99070.06
2023-04-03T08:07:08.351Z,99080.47
2023-04-03T08:09:35.391Z,99096.47
2023-04-03T08:12:02.534Z,99084.31
2023-04-03T08:14:32.439Z,99097.59
2023-04-03T08:16:59.661Z,99072.31
2023-04-03T08:19:27.014Z,99074.25
2023-04-03T08:21:55.822Z,99089.44
2023-04-03T08:24:22.925Z,99069.13
2023-04-03T08:26:49.916Z,99075.41
2023-04-03T08:29:17.354Z,99081.66
2023-04-03T08:31:44.516Z,99092.22
2023-04-03T08:34:12.512Z,99068.84
2023-04-03T08:36:39.801Z,99095.34
2023-04-03T08:39:07.584Z,99085.41
2023-04-03T08:41:41.064Z,99100.16
2023-04-03T08:44:35.768Z,99107.41
2023-04-03T08:47:25.673Z,99104.34
2023-04-03T08:49:54.809Z,99115.69
2023-04-03T08:52:53.696Z,99109.88
2023-04-03T08:55:34.867Z,99106.16
2023-04-03T08:58:03.638Z,99113.63
2023-04-03T09:00:45.684Z,99115.09
2023-04-03T09:03:18.321Z,99104.34
2023-04-03T09:05:53.372Z,99120.72
2023-04-03T09:08:24.353Z,99122.00
2023-04-03T09:11:17.792Z,99120.75
2023-04-03T09:14:02.718Z,99115.78
2023-04-03T09:17:11.476Z,99133.56
2023-04-03T09:19:52.410Z,99125.28
2023-04-03T09:22:25.965Z,99131.50
2023-04-03T09:25:34.489Z,99129.88
2023-04-03T09:28:10.827Z,99115.56
2023-04-03T09:30:39.599Z,99143.50
2023-04-03T09:33:08.447Z,99131.53
2023-04-03T09:35:47.348Z,99130.50
2023-04-03T09:38:19.649Z,99116.00
2023-04-03T09:40:50.352Z,99127.63
2023-04-03T09:43:17.305Z,99131.53
2023-04-03T09:45:46.772Z,99121.59
2023-04-03T09:48:16.327Z,99129.06
2023-04-03T09:50:56.618Z,99136.09
2023-04-03T09:53:35.046Z,99133.56
2023-04-03T09:56:04.642Z,99136.31
2023-04-03T09:58:48.933Z,99140.03
2023-04-03T10:01:29.139Z,99129.88
2023-04-03T10:04:10.758Z,99136.31
2023-04-03T10:06:48.015Z,99135.09
2023-04-03T10:09:20.855Z,99136.38
2023-04-03T10:12:12.482Z,99140.72
2023-04-03T10:14:59.091Z,99138.84
2023-04-03T10:29:43.747Z,99152.72
2023-04-03T10:35:39.849Z,99147.34
2023-04-03T10:38:21.382Z,99146.94
2023-04-03T10:41:04.340Z,99144.84
2023-04-03T11:00:38.648Z,99127.25
2023-04-03T11:33:57.927Z,99132.22
2023-04-03T11:40:04.010Z,99122.16
2023-04-03T12:15:57.391Z,99136.97
2023-04-03T12:18:56.223Z,99134.69
2023-04-03T12:34:49.483Z,99113.34
2023-04-03T16:40:53.017Z,99152.94
2023-04-03T16:49:22.627Z,99166.25
2023-04-03T16:51:50.475Z,99176.59
2023-04-03T16:54:17.540Z,99184.59
2023-04-03T16:56:44.634Z,99176.38
2023-04-03T16:59:11.872Z,99180.97
2023-04-03T17:01:39.126Z,99173.91
2023-04-03T17:07:28.501Z,99196.50
2023-04-03T17:09:55.704Z,99175.56
2023-04-03T17:12:23.423Z,99169.31
2023-04-03T17:14:50.667Z,99173.72
2023-04-03T17:17:35.045Z,99182.88
2023-04-03T17:20:13.104Z,99191.09
2023-04-03T17:22:40.860Z,99175.69
2023-04-03T17:25:08.328Z,99186.06
2023-04-03T17:27:35.732Z,99176.34
2023-04-03T17:30:03.216Z,99188.69
2023-04-03T17:32:30.724Z,99189.06
2023-04-03T17:34:57.787Z,99186.75
2023-04-03T17:37:24.896Z,99203.50
2023-04-03T17:39:51.943Z,99184.72
2023-04-03T17:42:19.167Z,99186.03
2023-04-03T17:44:46.938Z,99190.59
2023-04-03T17:47:14.100Z,99190.53
2023-04-03T17:49:41.751Z,99185.94
2023-04-03T17:52:09.027Z,99186.78
2023-04-03T17:54:36.187Z,99190.03
2023-04-03T17:57:05.140Z,99188.75
2023-04-03T17:59:32.216Z,99194.69
2023-04-03T18:01:59.349Z,99192.81
2023-04-03T18:04:26.855Z,99188.19
2023-04-03T18:06:56.235Z,99205.97
2023-04-03T18:09:27.365Z,99199.53
2023-04-03T18:11:57.261Z,99211.44
2023-04-03T18:14:27.469Z,99193.59
2023-04-03T18:16:57.578Z,99183.81
2023-04-03T18:22:19.392Z,99192.25
2023-04-03T18:24:47.171Z,99190.97
2023-04-03T18:27:17.257Z,99188.50
2023-04-03T18:29:49.274Z,99169.47
2023-04-03T18:32:19.509Z,99184.78
2023-04-03T18:34:46.862Z,99200.56
2023-04-03T18:37:15.716Z,99189.38
2023-04-03T18:39:43.452Z,99203.00
2023-04-03T18:42:15.460Z,99202.72
2023-04-03T18:44:46.936Z,99207.72
2023-04-03T18:47:14.102Z,99205.91
2023-04-03T18:49:42.979Z,99200.31
2023-04-03T18:52:11.933Z,99217.94
2023-04-03T18:54:39.307Z,99214.16
2023-04-03T18:57:06.429Z,99207.25
2023-04-03T18:59:33.455Z,99208.47
2023-04-03T19:02:01.216Z,99195.09
2023-04-03T19:04:29.655Z,99212.13
2023-04-03T19:06:56.889Z,99204.63
2023-04-03T19:09:26.077Z,99200.31
2023-04-03T19:11:53.122Z,99201.34
2023-04-03T19:14:20.450Z,99179.06
2023-04-03T19:16:47.787Z,99208.34
2023-04-03T19:19:14.931Z,99194.84
2023-04-03T19:21:42.326Z,99206.13
2023-04-03T19:24:11.796Z,99204.13
2023-04-03T19:26:39.714Z,99192.38
2023-04-03T19:29:07.207Z,99170.19
2023-04-03T19:31:35.232Z,99177.88
2023-04-03T19:34:03.895Z,99185.97
2023-04-03T19:36:31.712Z,99187.25
2023-04-03T19:38:58.978Z,99191.16
2023-04-03T19:41:28.778Z,99193.38
2023-04-03T19:43:56.848Z,99184.00
2023-04-03T19:46:26.059Z,99180.34
2023-04-03T19:48:53.105Z,99187.88
2023-04-03T19:51:20.328Z,99188.63
2023-04-03T19:53:48.677Z,99195.59
2023-04-03T19:56:20.942Z,99190.03
2023-04-03T19:58:54.187Z,99187.28
2023-04-03T20:01:24.438Z,99178.13
2023-04-03T20:03:52.098Z,99191.63
2023-04-03T20:06:19.618Z,99184.75
2023-04-03T20:08:46.882Z,99164.84
2023-04-03T20:11:14.097Z,99198.56
2023-04-03T20:13:41.061Z,99171.03
2023-04-03T20:16:08.746Z,99193.03
2023-04-03T20:18:36.146Z,99192.00
2023-04-03T20:21:05.391Z,99189.31
2023-04-03T20:23:32.562Z,99180.75
2023-04-03T20:26:10.509Z,99174.81
2023-04-03T20:28:42.184Z,99183.78
2023-04-03T20:31:10.189Z,99177.25
2023-04-03T20:33:38.125Z,99174.25
2023-04-03T20:36:05.240Z,99179.09
2023-04-03T20:38:32.314Z,99181.34
2023-04-03T20:41:00.436Z,99187.25
2023-04-03T20:43:28.773Z,99180.06
2023-04-03T20:45:56.492Z,99156.06
2023-04-03T20:48:23.843Z,99176.72
2023-04-03T20:50:51.249Z,99174.41
2023-04-03T20:53:19.402Z,99161.94
2023-04-03T20:56:00.710Z,99173.47
2023-04-03T20:58:30.446Z,99177.63
2023-04-03T21:00:57.853Z,99159.69
2023-04-03T21:03:26.246Z,99167.19
2023-04-03T21:06:04.023Z,99167.19
2023-04-03T21:09:08.714Z,99163.84
2023-04-03T21:12:13.483Z,99163.56
2023-04-03T21:15:18.313Z,99161.78
2023-04-03T21:18:10.426Z,99164.22
2023-04-03T21:20:37.481Z,99136.91
2023-04-03T21:23:05.675Z,99149.00
2023-04-03T21:25:33.212Z,99153.34
2023-04-03T21:28:00.526Z,99145.63
2023-04-03T21:30:27.689Z,99171.72
2023-04-03T21:32:54.762Z,99165.81
2023-04-03T21:35:22.042Z,99169.53
2023-04-03T21:37:49.820Z,99157.22
2023-04-03T21:40:16.922Z,99163.50
2023-04-03T21:42:43.888Z,99168.34
2023-04-03T21:45:10.844Z,99163.16
2023-04-03T21:47:38.451Z,99154.25
2023-04-03T21:50:06.089Z,99156.31
2023-04-03T21:52:33.066Z,99157.91
2023-04-03T21:54:59.880Z,99158.78
2023-04-03T21:57:26.890Z,99164.19
2023-04-03T21:59:53.996Z,99133.25
2023-04-03T22:02:21.249Z,99152.25
2023-04-03T22:04:48.218Z,99146.78
2023-04-03T22:07:15.101Z,99154.63
2023-04-03T22:09:42.179Z,99146.09
2023-04-03T22:12:11.908Z,99139.81
2023-04-03T22:14:39.673Z,99122.53
2023-04-03T22:17:07.404Z,99133.38
2023-04-03T22:19:34.472Z,99142.38
2023-04-03T22:22:03.783Z,99128.50
2023-04-03T22:24:30.754Z,99137.03
2023-04-03T22:26:57.721Z,99135.13
2023-04-03T22:29:24.667Z,99112.03
2023-04-03T22:31:51.528Z,99128.53
2023-04-03T22:34:18.762Z,99123.38
2023-04-03T22:36:46.025Z,99121.34
2023-04-03T22:39:15.354Z,99122.53
2023-04-03T22:41:45.438Z,99110.19
2023-04-03T22:44:12.920Z,99118.69
2023-04-03T22:46:39.963Z,99114.81
2023-04-03T22:49:07.683Z,99123.50
2023-04-03T22:51:34.796Z,99122.78
2023-04-03T22:54:01.978Z,99124.59
2023-04-03T22:56:29.458Z,99128.38
2023-04-03T22:58:57.350Z,99098.44
2023-04-03T23:01:25.512Z,99121.13
2023-04-03T23:03:52.655Z,99113.75
2023-04-03T23:06:19.897Z,99115.81
2023-04-03T23:08:46.845Z,99104.69
2023-04-03T23:11:13.679Z,99122.88
2023-04-03T23:13:41.057Z,99113.88
2023-04-03T23:16:09.100Z,99109.88
2023-04-03T23:18:39.948Z,99125.72
2023-04-03T23:21:08.587Z,99124.66
2023-04-03T23:23:35.705Z,99113.16
2023-04-03T23:26:03.131Z,99123.63
2023-04-03T23:28:30.712Z,99111.47
2023-04-03T23:31:06.897Z,99108.06
2023-04-03T23:33:34.202Z,99121.84
2023-04-03T23:36:07.485Z,99120.31
2023-04-03T23:38:35.426Z,99117.34
2023-04-03T23:41:02.513Z,99123.97
2023-04-03T23:43:29.539Z,99106.53
2023-04-03T23:45:56.517Z,99124.41
2023-04-03T23:48:23.564Z,99122.94
2023-04-03T23:50:50.865Z,99122.06
2023-04-03T23:53:18.539Z,99113.00
2023-04-03T23:55:45.567Z,99116.13
2023-04-03T23:58:12.564Z,99111.63
